Deerfield Beach, FL

3:17 AM EST on December 25, 2014 (GMT -0500)
Fort Lauderdale-Hollywood International | Change Station
CLOSE
Current Station
Airport
Location: Ft Lauderdale,
Elevation: 10 ft
Nearby Weather Stations

Elev 10 ft 26.07 °N, 80.15 °W | Updated 24 minutes ago

Rain
Rain
74 °F
Feels Like 74 °F
N
14
Wind Variable Wind from SW
Gusts 21 mph

Today
High -- | Low -- °F
--% Chance of Precip.
Yesterday
High -- | Low -- °F
Precip. -- in
7:05 AM 5:35 PM
Waxing Crescent, 14% visible
Pressure 29.99 in
Visibility 6.0 miles
Clouds Scattered Clouds 2500 ft
Mostly Cloudy 4200 ft
Mostly Cloudy 7500 ft
Dew Point 72 °F
Humidity 93%
Rainfall 0.07 in
Snow Depth Not available.
UV 0 out of 12
Pollen 3.90 out of 12
Air Quality Not available.
Flu Activity Not available.
METAR KFLL 250753Z 23012G18KT 6SM RA BR SCT025 BKN042 BKN075 23/22 A2998 RMK AO2 SLP153 CB DSNT SE W-NW MOV NE P0005 T02330222

More Conditions Fewer Conditions

Pressure 29.99 in
Visibility 6.0 miles
Clouds Scattered Clouds 2500 ft
Mostly Cloudy 4200 ft
Mostly Cloudy 7500 ft
Dew Point 72 °F
Humidity 93%
Rainfall 0.07 in
Snow Depth Not available.
UV 0 out of 12
Pollen 3.90 out of 12
Air Quality Not available.
Flu Activity Not available.
METAR KFLL 250753Z 23012G18KT 6SM RA BR SCT025 BKN042 BKN075 23/22 A2998 RMK AO2 SLP153 CB DSNT SE W-NW MOV NE P0005 T02330222

More Conditions Fewer Conditions

Nowcast | as of 1:40 am EST on December 25, 2014

A line of showers and embedded thunderstorms over the interior areas of South Florida will continue to move east northeast around 25 mph into the Metro areas of Palm Beach and Broward counties through early this morning. Any storms that do move through the area will be capable of producing wind gusts up to 35 mph...lightning strikes...and locally heavy rainfall. If you see lightning or hear thunder move inside until the storms have passed by.

×

10-Day Weather Forecast

Almanac

Astronomy

Dec. 25, 2014 Rise Set
Actual Time
Civil Twilight
Nautical Twilight
Astronomical Twilight
Moon
Length of Visible Light
Length of Day
Tomorrow will be .
, % of the Moon is Illuminated

Today's Extremes

State Highs State Lows

Community

WunderPhotos

Upload Photos

1,780,250 photos uploaded!

WunderBlogs® & News

Nearby

Air Quality

  Air Quality AQ Index Pollutant
Not available.

Snow Depth

Station Depth Elevation

Earthquake Activity

City Distance Mag. Time & Date
Minimum magnitude displayed is 2.5.

Coastal Water Temperatures

Place Temperature

Nearby Weather Stations